VOI245 MMMY-MMMX
Flight info
| Callsign | VOI245 |
|---|---|
| Flight time | 1h 4m |
| Altitude | 31000 |
| Route | KERGA1A KERGA UT132 DARAN DARAN3A |
| Aircraft | A20N/M-SDE2E3FGHIRWXY/LB1 |
Departure
| Time | 2026-05-06 01:06 |
|---|---|
| Airport | Monterrey International Airport (MMMY) |
Arrival
| Time | 2026-05-06 02:10 |
|---|---|
| Airport | Mexico City Benito Juárez International Airport (MMMX) |
| Time | Latitude | Longitude | Altitude | Speed | Heading |
|---|---|---|---|---|---|
| 2026-05-06 00:38 | 25.77875 | -100.11335 | 1276 ft | 0 kts | 211° |
| 2026-05-06 00:57 | 25.77883 | -100.11331 | 1276 ft | 2 kts | 210° |
| 2026-05-06 00:57 | 25.77897 | -100.11321 | 1276 ft | 2 kts | 214° |
| 2026-05-06 00:57 | 25.77910 | -100.11310 | 1276 ft | 2 kts | 218° |
| 2026-05-06 00:58 | 25.77922 | -100.11298 | 1276 ft | 2 kts | 224° |
| 2026-05-06 00:58 | 25.77933 | -100.11285 | 1278 ft | 2 kts | 237° |
| 2026-05-06 00:58 | 25.77940 | -100.11268 | 1276 ft | 2 kts | 268° |
| 2026-05-06 00:58 | 25.77937 | -100.11252 | 1276 ft | 2 kts | 296° |
| 2026-05-06 00:59 | 25.77935 | -100.11247 | 1277 ft | 0 kts | 300° |
| 2026-05-06 01:01 | 25.77940 | -100.11257 | 1268 ft | 3 kts | 300° |
| 2026-05-06 01:01 | 25.77954 | -100.11284 | 1278 ft | 5 kts | 300° |
| 2026-05-06 01:02 | 25.77977 | -100.11327 | 1277 ft | 8 kts | 302° |
| 2026-05-06 01:02 | 25.78010 | -100.11384 | 1278 ft | 10 kts | 302° |
| 2026-05-06 01:02 | 25.78051 | -100.11456 | 1281 ft | 12 kts | 301° |
| 2026-05-06 01:02 | 25.78098 | -100.11542 | 1281 ft | 14 kts | 302° |
| 2026-05-06 01:03 | 25.78149 | -100.11634 | 1283 ft | 14 kts | 301° |
| 2026-05-06 01:03 | 25.78201 | -100.11729 | 1285 ft | 14 kts | 301° |
| 2026-05-06 01:03 | 25.78238 | -100.11793 | 1287 ft | 7 kts | 310° |
| 2026-05-06 01:03 | 25.78285 | -100.11797 | 1287 ft | 8 kts | 22° |
| 2026-05-06 01:04 | 25.78339 | -100.11763 | 1288 ft | 10 kts | 29° |
| 2026-05-06 01:04 | 25.78398 | -100.11719 | 1288 ft | 9 kts | 46° |
| 2026-05-06 01:04 | 25.78387 | -100.11655 | 1288 ft | 0 kts | 123° |
| 2026-05-06 01:04 | 25.78384 | -100.11650 | 1288 ft | 3 kts | 123° |
| 2026-05-06 01:05 | 25.78325 | -100.11546 | 1289 ft | 41 kts | 120° |
| 2026-05-06 01:05 | 25.78050 | -100.11049 | 1274 ft | 106 kts | 121° |
| 2026-05-06 01:05 | 25.77576 | -100.10200 | 1355 ft | 144 kts | 122° |
| 2026-05-06 01:05 | 25.77058 | -100.09240 | 1851 ft | 144 kts | 120° |
| 2026-05-06 01:06 | 25.76717 | -100.08618 | 2212 ft | 142 kts | 120° |
| 2026-05-06 01:06 | 25.76199 | -100.07702 | 2828 ft | 136 kts | 121° |
| 2026-05-06 01:06 | 25.75671 | -100.06781 | 3196 ft | 149 kts | 122° |
| 2026-05-06 01:06 | 25.75092 | -100.05750 | 3499 ft | 167 kts | 121° |
| 2026-05-06 01:07 | 25.74454 | -100.04590 | 3827 ft | 186 kts | 121° |
| 2026-05-06 01:07 | 25.73748 | -100.03288 | 4159 ft | 208 kts | 121° |
| 2026-05-06 01:07 | 25.72963 | -100.01836 | 4526 ft | 232 kts | 121° |
| 2026-05-06 01:07 | 25.72089 | -100.00221 | 4948 ft | 257 kts | 121° |
| 2026-05-06 01:08 | 25.71086 | -99.98517 | 5674 ft | 267 kts | 131° |
| 2026-05-06 01:08 | 25.69613 | -99.97229 | 6414 ft | 278 kts | 154° |
| 2026-05-06 01:08 | 25.67744 | -99.96745 | 7125 ft | 283 kts | 181° |
| 2026-05-06 01:08 | 25.65767 | -99.96844 | 7981 ft | 287 kts | 184° |
| 2026-05-06 01:09 | 25.63761 | -99.96968 | 8787 ft | 291 kts | 185° |
| 2026-05-06 01:09 | 25.61736 | -99.97089 | 9611 ft | 295 kts | 185° |
| 2026-05-06 01:09 | 25.59661 | -99.97213 | 10368 ft | 299 kts | 184° |
| 2026-05-06 01:09 | 25.57501 | -99.97339 | 10675 ft | 322 kts | 184° |
| 2026-05-06 01:10 | 25.55179 | -99.97469 | 10917 ft | 343 kts | 184° |
| 2026-05-06 01:10 | 25.52769 | -99.97599 | 11587 ft | 347 kts | 184° |
| 2026-05-06 01:10 | 25.50383 | -99.97727 | 12424 ft | 348 kts | 184° |
| 2026-05-06 01:10 | 25.47954 | -99.97858 | 13220 ft | 350 kts | 184° |
| 2026-05-06 01:11 | 25.45513 | -99.97991 | 13948 ft | 352 kts | 184° |
| 2026-05-06 01:11 | 25.43057 | -99.98125 | 14667 ft | 354 kts | 185° |
| 2026-05-06 01:11 | 25.40592 | -99.98261 | 15457 ft | 356 kts | 185° |
| 2026-05-06 01:11 | 25.38115 | -99.98397 | 16180 ft | 358 kts | 185° |
| 2026-05-06 01:12 | 25.35619 | -99.98533 | 16905 ft | 360 kts | 185° |
| 2026-05-06 01:12 | 25.33113 | -99.98659 | 17619 ft | 362 kts | 185° |
| 2026-05-06 01:12 | 25.30605 | -99.98775 | 18279 ft | 365 kts | 185° |
| 2026-05-06 01:12 | 25.28046 | -99.98890 | 18736 ft | 372 kts | 186° |
| 2026-05-06 01:13 | 25.25431 | -99.99009 | 19310 ft | 375 kts | 186° |
| 2026-05-06 01:13 | 25.22958 | -99.99123 | 19883 ft | 377 kts | 186° |
| 2026-05-06 01:13 | 25.20327 | -99.99245 | 20463 ft | 380 kts | 187° |
| 2026-05-06 01:13 | 25.17712 | -99.99367 | 21036 ft | 383 kts | 187° |
| 2026-05-06 01:14 | 25.12350 | -99.99619 | 22212 ft | 386 kts | 187° |
| 2026-05-06 01:14 | 25.09653 | -99.99744 | 22720 ft | 390 kts | 187° |
| 2026-05-06 01:14 | 25.06918 | -99.99873 | 23205 ft | 396 kts | 187° |
| 2026-05-06 01:15 | 25.04157 | -100.00002 | 23739 ft | 397 kts | 187° |
| 2026-05-06 01:15 | 25.01389 | -100.00136 | 24173 ft | 399 kts | 187° |
| 2026-05-06 01:15 | 24.98609 | -100.00267 | 24433 ft | 401 kts | 187° |
| 2026-05-06 01:15 | 24.95806 | -100.00396 | 24910 ft | 404 kts | 187° |
| 2026-05-06 01:16 | 24.92985 | -100.00387 | 25364 ft | 408 kts | 181° |
| 2026-05-06 01:16 | 24.90132 | -100.00214 | 25808 ft | 412 kts | 182° |
| 2026-05-06 01:16 | 24.87293 | -100.00047 | 26274 ft | 414 kts | 182° |
| 2026-05-06 01:16 | 24.84409 | -99.99884 | 26611 ft | 417 kts | 182° |
| 2026-05-06 01:17 | 24.81507 | -99.99720 | 27004 ft | 417 kts | 182° |
| 2026-05-06 01:17 | 24.78598 | -99.99551 | 27431 ft | 419 kts | 182° |
| 2026-05-06 01:17 | 24.75662 | -99.99382 | 27753 ft | 424 kts | 182° |
| 2026-05-06 01:17 | 24.72710 | -99.99213 | 28162 ft | 425 kts | 182° |
| 2026-05-06 01:18 | 24.69787 | -99.99046 | 28613 ft | 426 kts | 182° |
| 2026-05-06 01:18 | 24.66803 | -99.98877 | 28906 ft | 429 kts | 181° |
| 2026-05-06 01:18 | 24.63809 | -99.98709 | 29318 ft | 431 kts | 181° |
| 2026-05-06 01:18 | 24.60791 | -99.98537 | 29715 ft | 433 kts | 181° |
| 2026-05-06 01:19 | 24.57809 | -99.98368 | 30090 ft | 434 kts | 181° |
| 2026-05-06 01:19 | 24.54781 | -99.98193 | 30350 ft | 438 kts | 181° |
| 2026-05-06 01:19 | 24.51714 | -99.98020 | 30684 ft | 440 kts | 181° |
| 2026-05-06 01:19 | 24.48649 | -99.97847 | 30807 ft | 440 kts | 181° |
| 2026-05-06 01:20 | 24.42534 | -99.97500 | 30827 ft | 440 kts | 181° |
| 2026-05-06 01:20 | 24.36449 | -99.97154 | 30827 ft | 440 kts | 181° |
| 2026-05-06 01:21 | 24.30337 | -99.96807 | 30823 ft | 440 kts | 181° |
| 2026-05-06 01:21 | 24.24214 | -99.96462 | 30824 ft | 440 kts | 181° |
| 2026-05-06 01:22 | 24.19137 | -99.96175 | 30820 ft | 439 kts | 181° |
| 2026-05-06 01:22 | 24.13026 | -99.95831 | 30803 ft | 439 kts | 181° |
| 2026-05-06 01:23 | 24.06920 | -99.95484 | 30807 ft | 438 kts | 181° |
| 2026-05-06 01:23 | 24.00799 | -99.95141 | 30813 ft | 442 kts | 181° |
| 2026-05-06 01:24 | 23.94692 | -99.94806 | 30807 ft | 441 kts | 181° |
| 2026-05-06 01:24 | 23.88568 | -99.94461 | 30807 ft | 442 kts | 181° |
| 2026-05-06 01:25 | 23.82418 | -99.94109 | 30804 ft | 441 kts | 181° |
| 2026-05-06 01:25 | 23.76310 | -99.93762 | 30800 ft | 441 kts | 181° |
| 2026-05-06 01:26 | 23.70173 | -99.93419 | 30794 ft | 441 kts | 180° |
| 2026-05-06 01:26 | 23.64021 | -99.93073 | 30784 ft | 441 kts | 180° |
| 2026-05-06 01:27 | 23.57888 | -99.92729 | 30784 ft | 441 kts | 180° |
| 2026-05-06 01:27 | 23.51784 | -99.92387 | 30772 ft | 441 kts | 180° |
| 2026-05-06 01:28 | 23.45639 | -99.92043 | 30776 ft | 441 kts | 180° |
| 2026-05-06 01:28 | 23.39534 | -99.91701 | 30759 ft | 442 kts | 180° |
| 2026-05-06 01:29 | 23.33390 | -99.91352 | 30762 ft | 441 kts | 180° |
| 2026-05-06 01:29 | 23.27261 | -99.91007 | 30747 ft | 442 kts | 180° |
| 2026-05-06 01:30 | 23.21114 | -99.90673 | 30759 ft | 443 kts | 180° |
| 2026-05-06 01:30 | 23.14944 | -99.90330 | 30755 ft | 444 kts | 180° |
| 2026-05-06 01:31 | 23.08753 | -99.89988 | 30755 ft | 444 kts | 180° |
| 2026-05-06 01:31 | 23.02614 | -99.89648 | 30749 ft | 445 kts | 180° |
| 2026-05-06 01:32 | 22.96410 | -99.89303 | 30745 ft | 445 kts | 180° |
| 2026-05-06 01:32 | 22.90216 | -99.88960 | 30737 ft | 444 kts | 180° |
| 2026-05-06 01:33 | 22.84076 | -99.88617 | 30726 ft | 443 kts | 180° |
| 2026-05-06 01:33 | 22.77896 | -99.88275 | 30723 ft | 447 kts | 180° |
| 2026-05-06 01:34 | 22.71675 | -99.87931 | 30724 ft | 447 kts | 180° |
| 2026-05-06 01:34 | 22.65478 | -99.87586 | 30715 ft | 447 kts | 180° |
| 2026-05-06 01:35 | 22.59284 | -99.87244 | 30714 ft | 447 kts | 180° |
| 2026-05-06 01:35 | 22.53073 | -99.86902 | 30707 ft | 447 kts | 180° |
| 2026-05-06 01:36 | 22.46856 | -99.86559 | 30704 ft | 447 kts | 180° |
| 2026-05-06 01:36 | 22.40649 | -99.86218 | 30703 ft | 447 kts | 180° |
| 2026-05-06 01:37 | 22.34435 | -99.85876 | 30701 ft | 447 kts | 180° |
| 2026-05-06 01:37 | 22.28251 | -99.85536 | 30705 ft | 447 kts | 180° |
| 2026-05-06 01:38 | 22.22042 | -99.85195 | 30703 ft | 447 kts | 180° |
| 2026-05-06 01:38 | 22.15822 | -99.84853 | 30705 ft | 447 kts | 180° |
| 2026-05-06 01:39 | 22.09596 | -99.84514 | 30707 ft | 448 kts | 180° |
| 2026-05-06 01:39 | 22.03352 | -99.84170 | 30711 ft | 449 kts | 180° |
| 2026-05-06 01:40 | 21.97157 | -99.83830 | 30712 ft | 449 kts | 180° |
| 2026-05-06 01:40 | 21.90912 | -99.83488 | 30715 ft | 449 kts | 180° |
| 2026-05-06 01:41 | 21.84665 | -99.83147 | 30725 ft | 449 kts | 180° |
| 2026-05-06 01:41 | 21.78401 | -99.82806 | 30723 ft | 450 kts | 179° |
| 2026-05-06 01:42 | 21.72156 | -99.82463 | 30720 ft | 449 kts | 179° |
| 2026-05-06 01:42 | 21.65942 | -99.82121 | 30720 ft | 449 kts | 179° |
| 2026-05-06 01:43 | 21.59690 | -99.81783 | 30726 ft | 449 kts | 179° |
| 2026-05-06 01:43 | 21.53437 | -99.81444 | 30726 ft | 450 kts | 179° |
| 2026-05-06 01:44 | 21.47172 | -99.81105 | 30725 ft | 450 kts | 179° |
| 2026-05-06 01:44 | 21.40936 | -99.80766 | 30730 ft | 451 kts | 179° |
| 2026-05-06 01:45 | 21.34665 | -99.80425 | 30731 ft | 452 kts | 179° |
| 2026-05-06 01:45 | 21.28382 | -99.80083 | 30735 ft | 452 kts | 179° |
| 2026-05-06 01:46 | 21.22093 | -99.79742 | 30749 ft | 452 kts | 179° |
| 2026-05-06 01:46 | 21.15803 | -99.79401 | 30743 ft | 452 kts | 179° |
| 2026-05-06 01:47 | 21.09521 | -99.79062 | 30752 ft | 452 kts | 179° |
| 2026-05-06 01:47 | 21.03267 | -99.78725 | 30754 ft | 452 kts | 179° |
| 2026-05-06 01:48 | 20.96989 | -99.78491 | 30761 ft | 451 kts | 180° |
| 2026-05-06 01:48 | 20.90710 | -99.78299 | 30760 ft | 451 kts | 180° |
| 2026-05-06 01:49 | 20.84441 | -99.78094 | 30747 ft | 451 kts | 179° |
| 2026-05-06 01:49 | 20.81332 | -99.77990 | 30592 ft | 453 kts | 179° |
| 2026-05-06 01:49 | 20.78183 | -99.77883 | 30358 ft | 452 kts | 179° |
| 2026-05-06 01:50 | 20.75011 | -99.77773 | 30125 ft | 449 kts | 179° |
| 2026-05-06 01:50 | 20.71924 | -99.77666 | 29903 ft | 447 kts | 179° |
| 2026-05-06 01:50 | 20.68812 | -99.77561 | 29655 ft | 446 kts | 179° |
| 2026-05-06 01:50 | 20.65720 | -99.77455 | 29387 ft | 444 kts | 179° |
| 2026-05-06 01:51 | 20.62961 | -99.77361 | 29147 ft | 443 kts | 179° |
| 2026-05-06 01:51 | 20.59885 | -99.77255 | 28789 ft | 442 kts | 179° |
| 2026-05-06 01:51 | 20.56812 | -99.77150 | 28165 ft | 441 kts | 179° |
| 2026-05-06 01:51 | 20.53759 | -99.77045 | 27551 ft | 438 kts | 179° |
| 2026-05-06 01:52 | 20.50728 | -99.76942 | 26932 ft | 433 kts | 179° |
| 2026-05-06 01:52 | 20.47775 | -99.76842 | 26340 ft | 428 kts | 178° |
| 2026-05-06 01:52 | 20.44801 | -99.76740 | 25745 ft | 424 kts | 178° |
| 2026-05-06 01:52 | 20.41869 | -99.76640 | 25128 ft | 421 kts | 178° |
| 2026-05-06 01:53 | 20.38944 | -99.76540 | 24512 ft | 419 kts | 178° |
| 2026-05-06 01:53 | 20.36043 | -99.76441 | 23916 ft | 416 kts | 178° |
| 2026-05-06 01:53 | 20.33155 | -99.76343 | 23327 ft | 414 kts | 178° |
| 2026-05-06 01:53 | 20.30310 | -99.76246 | 22721 ft | 409 kts | 178° |
| 2026-05-06 01:54 | 20.27512 | -99.75948 | 22318 ft | 399 kts | 167° |
| 2026-05-06 01:54 | 20.24929 | -99.74949 | 22065 ft | 396 kts | 153° |
| 2026-05-06 01:54 | 20.22571 | -99.73371 | 21822 ft | 405 kts | 147° |
| 2026-05-06 01:54 | 20.20230 | -99.71710 | 21591 ft | 402 kts | 147° |
| 2026-05-06 01:55 | 20.17936 | -99.70082 | 21350 ft | 399 kts | 146° |
| 2026-05-06 01:55 | 20.15626 | -99.68444 | 21115 ft | 399 kts | 146° |
| 2026-05-06 01:55 | 20.13317 | -99.66806 | 20873 ft | 397 kts | 146° |
| 2026-05-06 01:55 | 20.11016 | -99.65176 | 20634 ft | 396 kts | 146° |
| 2026-05-06 01:56 | 20.08720 | -99.63551 | 20392 ft | 393 kts | 147° |
| 2026-05-06 01:56 | 20.06450 | -99.61945 | 20174 ft | 393 kts | 146° |
| 2026-05-06 01:56 | 20.04158 | -99.60324 | 19936 ft | 393 kts | 146° |
| 2026-05-06 01:56 | 20.01889 | -99.58720 | 19707 ft | 392 kts | 146° |
| 2026-05-06 01:57 | 19.99608 | -99.57109 | 19475 ft | 394 kts | 146° |
| 2026-05-06 01:57 | 19.97362 | -99.55522 | 19252 ft | 390 kts | 146° |
| 2026-05-06 01:57 | 19.95137 | -99.53950 | 19053 ft | 375 kts | 146° |
| 2026-05-06 01:57 | 19.93014 | -99.52451 | 18919 ft | 355 kts | 146° |
| 2026-05-06 01:58 | 19.91014 | -99.51039 | 18745 ft | 336 kts | 146° |
| 2026-05-06 01:58 | 19.89138 | -99.49715 | 18604 ft | 317 kts | 146° |
| 2026-05-06 01:58 | 19.87350 | -99.48454 | 18477 ft | 299 kts | 146° |
| 2026-05-06 01:58 | 19.85660 | -99.47264 | 18345 ft | 283 kts | 146° |
| 2026-05-06 01:59 | 19.84039 | -99.46121 | 17904 ft | 278 kts | 145° |
| 2026-05-06 01:59 | 19.82443 | -99.44996 | 17457 ft | 272 kts | 145° |
| 2026-05-06 01:59 | 19.80853 | -99.43873 | 16882 ft | 273 kts | 145° |
| 2026-05-06 01:59 | 19.79274 | -99.42758 | 16330 ft | 273 kts | 146° |
| 2026-05-06 02:00 | 19.77726 | -99.41667 | 15878 ft | 270 kts | 146° |
| 2026-05-06 02:00 | 19.76164 | -99.40567 | 15385 ft | 268 kts | 146° |
| 2026-05-06 02:00 | 19.74614 | -99.39475 | 14876 ft | 268 kts | 146° |
| 2026-05-06 02:00 | 19.73071 | -99.38388 | 14615 ft | 264 kts | 146° |
| 2026-05-06 02:01 | 19.71895 | -99.37560 | 14538 ft | 269 kts | 146° |
| 2026-05-06 02:01 | 19.70329 | -99.36458 | 14453 ft | 268 kts | 147° |
| 2026-05-06 02:01 | 19.68800 | -99.35382 | 14359 ft | 266 kts | 147° |
| 2026-05-06 02:01 | 19.67248 | -99.34290 | 14199 ft | 267 kts | 147° |
| 2026-05-06 02:02 | 19.65698 | -99.33201 | 14112 ft | 267 kts | 147° |
| 2026-05-06 02:02 | 19.64151 | -99.32113 | 14020 ft | 267 kts | 147° |
| 2026-05-06 02:02 | 19.62598 | -99.31022 | 13928 ft | 267 kts | 147° |
| 2026-05-06 02:02 | 19.61049 | -99.29933 | 13838 ft | 267 kts | 147° |
| 2026-05-06 02:03 | 19.59499 | -99.28843 | 13767 ft | 266 kts | 147° |
| 2026-05-06 02:03 | 19.58010 | -99.27731 | 13544 ft | 263 kts | 144° |
| 2026-05-06 02:03 | 19.56543 | -99.26573 | 13117 ft | 262 kts | 143° |
| 2026-05-06 02:03 | 19.55083 | -99.25411 | 12829 ft | 261 kts | 143° |
| 2026-05-06 02:04 | 19.53620 | -99.24280 | 12535 ft | 259 kts | 148° |
| 2026-05-06 02:04 | 19.51967 | -99.23587 | 12278 ft | 252 kts | 170° |
| 2026-05-06 02:04 | 19.50269 | -99.23492 | 12153 ft | 235 kts | 179° |
| 2026-05-06 02:04 | 19.48669 | -99.23478 | 11873 ft | 227 kts | 178° |
| 2026-05-06 02:05 | 19.47117 | -99.23450 | 11472 ft | 225 kts | 178° |
| 2026-05-06 02:05 | 19.45552 | -99.23418 | 11056 ft | 224 kts | 178° |
| 2026-05-06 02:05 | 19.44016 | -99.23387 | 10720 ft | 217 kts | 178° |
| 2026-05-06 02:05 | 19.42503 | -99.23358 | 10222 ft | 217 kts | 178° |
| 2026-05-06 02:06 | 19.41008 | -99.23330 | 9987 ft | 213 kts | 178° |
| 2026-05-06 02:06 | 19.39615 | -99.23081 | 9840 ft | 194 kts | 158° |
| 2026-05-06 02:06 | 19.38492 | -99.22369 | 9573 ft | 185 kts | 138° |
| 2026-05-06 02:06 | 19.37698 | -99.21336 | 9290 ft | 184 kts | 119° |
| 2026-05-06 02:07 | 19.37283 | -99.20048 | 9118 ft | 189 kts | 99° |
| 2026-05-06 02:07 | 19.37315 | -99.18638 | 8982 ft | 194 kts | 79° |
| 2026-05-06 02:07 | 19.37814 | -99.17323 | 8893 ft | 193 kts | 59° |
| 2026-05-06 02:07 | 19.38525 | -99.16096 | 8917 ft | 199 kts | 60° |
| 2026-05-06 02:08 | 19.39208 | -99.14819 | 8923 ft | 193 kts | 61° |
| 2026-05-06 02:08 | 19.39849 | -99.13670 | 8915 ft | 173 kts | 61° |
| 2026-05-06 02:08 | 19.40452 | -99.12591 | 8595 ft | 171 kts | 61° |
| 2026-05-06 02:08 | 19.41044 | -99.11527 | 8250 ft | 164 kts | 60° |
| 2026-05-06 02:09 | 19.41615 | -99.10515 | 7903 ft | 156 kts | 59° |
| 2026-05-06 02:09 | 19.42159 | -99.09540 | 7668 ft | 155 kts | 59° |
| 2026-05-06 02:09 | 19.42707 | -99.08566 | 7395 ft | 151 kts | 59° |
| 2026-05-06 02:09 | 19.43227 | -99.07643 | 7306 ft | 135 kts | 59° |
| 2026-05-06 02:10 | 19.43560 | -99.07049 | 7302 ft | 57 kts | 59° |
| 2026-05-06 02:10 | 19.43736 | -99.06740 | 7303 ft | 39 kts | 59° |
| 2026-05-06 02:10 | 19.43875 | -99.06531 | 7302 ft | 31 kts | 39° |
| 2026-05-06 02:10 | 19.44008 | -99.06448 | 7302 ft | 18 kts | 27° |
| 2026-05-06 02:11 | 19.44120 | -99.06387 | 7302 ft | 19 kts | 28° |
| 2026-05-06 02:11 | 19.44240 | -99.06321 | 7302 ft | 19 kts | 23° |
| 2026-05-06 02:11 | 19.44350 | -99.06285 | 7302 ft | 12 kts | 352° |
| 2026-05-06 02:11 | 19.44405 | -99.06341 | 7302 ft | 12 kts | 265° |
| 2026-05-06 02:12 | 19.44365 | -99.06427 | 7302 ft | 14 kts | 239° |
| 2026-05-06 02:12 | 19.44309 | -99.06525 | 7302 ft | 17 kts | 239° |
| 2026-05-06 02:12 | 19.44244 | -99.06639 | 7302 ft | 19 kts | 239° |
| 2026-05-06 02:12 | 19.44172 | -99.06767 | 7302 ft | 21 kts | 239° |
| 2026-05-06 02:13 | 19.44093 | -99.06906 | 7302 ft | 23 kts | 239° |
| 2026-05-06 02:13 | 19.44014 | -99.07050 | 7302 ft | 19 kts | 239° |
| 2026-05-06 02:13 | 19.43942 | -99.07178 | 7302 ft | 21 kts | 239° |
| 2026-05-06 02:13 | 19.43862 | -99.07319 | 7302 ft | 23 kts | 239° |
| 2026-05-06 02:14 | 19.43787 | -99.07453 | 7302 ft | 22 kts | 239° |
| 2026-05-06 02:14 | 19.43710 | -99.07591 | 7302 ft | 18 kts | 239° |
| 2026-05-06 02:14 | 19.43643 | -99.07709 | 7302 ft | 19 kts | 239° |
| 2026-05-06 02:14 | 19.43571 | -99.07838 | 7302 ft | 21 kts | 239° |
| 2026-05-06 02:15 | 19.43493 | -99.07976 | 7302 ft | 22 kts | 240° |
| 2026-05-06 02:15 | 19.43414 | -99.08117 | 7302 ft | 22 kts | 239° |
| 2026-05-06 02:15 | 19.43346 | -99.08237 | 7302 ft | 18 kts | 239° |
| 2026-05-06 02:15 | 19.43293 | -99.08332 | 7302 ft | 14 kts | 239° |
| 2026-05-06 02:16 | 19.43246 | -99.08415 | 7302 ft | 13 kts | 239° |
| 2026-05-06 02:16 | 19.43208 | -99.08491 | 7302 ft | 9 kts | 260° |
| 2026-05-06 02:16 | 19.43243 | -99.08542 | 7302 ft | 9 kts | 319° |
| 2026-05-06 02:16 | 19.43272 | -99.08569 | 7302 ft | 0 kts | 319° |